Time;durP1;ratioP1;P1;durP2;ratioP2;P2;SDS_P1;SDS_P2;PMS_P1;PMS_P2;Temp;Humidity;BMP_temperature;BMP_pressure;BME280_temperature;BME280_humidity;BME280_pressure;Samples;Min_cycle;Max_cycle;Signal;HPM_P1;HPM_P2
2024/02/16 00:00:49;;;;;;;4.25;3.78;;;;;;;6.63;100.00;98301.41;6099277;19;20027;-75
2024/02/16 00:02:49;;;;;;;6.45;4.03;;;;;;;6.59;100.00;98300.53;6099267;19;20010;-75
2024/02/16 00:04:50;;;;;;;9.00;4.80;;;;;;;6.54;100.00;98305.47;6099244;19;20013;-74
2024/02/16 00:06:50;;;;;;;5.10;4.15;;;;;;;6.52;100.00;98303.09;6098928;19;20078;-75
2024/02/16 00:08:51;;;;;;;7.70;5.10;;;;;;;6.51;100.00;98292.47;6098392;19;20006;-75
2024/02/16 00:10:51;;;;;;;9.82;5.80;;;;;;;6.47;100.00;98301.44;6098172;19;20002;-75
2024/02/16 00:12:51;;;;;;;8.45;5.05;;;;;;;6.48;100.00;98305.78;6099271;19;20349;-75
2024/02/16 00:14:52;;;;;;;6.53;4.60;;;;;;;6.46;100.00;98297.09;6100039;19;20074;-74
2024/02/16 00:16:52;;;;;;;6.05;4.38;;;;;;;6.45;100.00;98295.50;6108919;19;20494;-75
2024/02/16 00:18:52;;;;;;;6.60;4.95;;;;;;;6.47;100.00;98293.19;6106838;19;23565;-75
2024/02/16 00:20:53;;;;;;;6.28;4.80;;;;;;;6.50;100.00;98288.91;6107281;19;20486;-75
2024/02/16 00:22:53;;;;;;;5.95;4.30;;;;;;;6.52;100.00;98288.56;6108470;19;20510;-74
2024/02/16 00:24:53;;;;;;;6.68;4.10;;;;;;;6.54;100.00;98287.06;6107233;19;20032;-75
2024/02/16 00:26:54;;;;;;;6.45;4.20;;;;;;;6.57;100.00;98291.84;6108478;19;20079;-75
2024/02/16 00:28:54;;;;;;;5.50;3.90;;;;;;;6.60;100.00;98288.38;6107077;19;19999;-75
2024/02/16 00:30:54;;;;;;;5.20;3.90;;;;;;;6.61;100.00;98289.97;6107309;19;20006;-75
2024/02/16 00:32:55;;;;;;;5.00;3.95;;;;;;;6.65;100.00;98292.81;6107819;19;20003;-74
2024/02/16 00:34:57;;;;;;;6.35;4.18;;;;;;;6.66;100.00;98299.91;6107472;19;20072;-75
2024/02/16 00:36:57;;;;;;;10.10;4.23;;;;;;;6.64;100.00;98300.25;6108729;19;20005;-75
2024/02/16 00:38:58;;;;;;;6.68;3.67;;;;;;;6.61;100.00;98302.91;6106297;19;20058;-75
2024/02/16 00:40:58;;;;;;;5.88;4.07;;;;;;;6.61;100.00;98294.66;6106933;19;20055;-74
2024/02/16 00:42:58;;;;;;;5.40;3.90;;;;;;;6.63;100.00;98290.44;6107413;19;20367;-74
2024/02/16 00:45:00;;;;;;;6.07;3.80;;;;;;;6.66;100.00;98286.94;6105877;19;20423;-74
2024/02/16 00:47:00;;;;;;;5.40;4.00;;;;;;;6.67;100.00;98282.25;6106972;19;20021;-74
2024/02/16 00:49:02;;;;;;;7.50;4.05;;;;;;;6.67;100.00;98296.78;6106100;19;20394;-75
2024/02/16 00:51:03;;;;;;;5.43;3.28;;;;;;;6.67;100.00;98285.78;6107065;19;19999;-75
2024/02/16 00:53:04;;;;;;;9.20;4.25;;;;;;;6.63;100.00;98282.19;6107205;19;20003;-75
2024/02/16 00:55:04;;;;;;;5.68;3.63;;;;;;;6.64;100.00;98283.78;6106947;19;20028;-74
2024/02/16 00:57:05;;;;;;;4.97;4.10;;;;;;;6.65;100.00;98270.81;6107161;19;20040;-74
2024/02/16 00:59:05;;;;;;;6.90;4.30;;;;;;;6.66;100.00;98273.22;6105938;19;20050;-74
2024/02/16 01:01:10;;;;;;;7.43;4.72;;;;;;;6.61;100.00;98273.47;6106337;19;19999;-74
2024/02/16 01:03:12;;;;;;;6.10;3.97;;;;;;;6.58;100.00;98271.44;6105828;19;20003;-75
2024/02/16 01:05:12;;;;;;;5.95;4.18;;;;;;;6.55;100.00;98283.16;6106475;19;20007;-74
2024/02/16 01:07:13;;;;;;;5.68;4.22;;;;;;;6.56;100.00;98286.72;6106638;19;20023;-75
2024/02/16 01:09:13;;;;;;;7.50;4.35;;;;;;;6.53;100.00;98279.94;6104629;19;20014;-75
2024/02/16 01:11:13;;;;;;;6.57;4.03;;;;;;;6.54;100.00;98270.56;6105649;19;20040;-74
2024/02/16 01:13:14;;;;;;;5.70;3.70;;;;;;;6.57;100.00;98274.56;6106696;19;20018;-74
2024/02/16 01:15:14;;;;;;;5.35;4.05;;;;;;;6.58;100.00;98265.16;6105058;19;20468;-75
2024/02/16 01:17:14;;;;;;;6.20;4.72;;;;;;;6.60;100.00;98273.81;6106248;19;20078;-75
2024/02/16 01:19:15;;;;;;;6.22;4.40;;;;;;;6.61;100.00;98275.41;6106195;19;20006;-75
2024/02/16 01:21:15;;;;;;;4.95;3.97;;;;;;;6.61;100.00;98276.22;6109076;19;20010;-75
2024/02/16 01:23:15;;;;;;;6.53;3.63;;;;;;;6.63;100.00;98279.44;6111338;19;20016;-75
2024/02/16 01:25:16;;;;;;;4.95;3.80;;;;;;;6.64;100.00;98281.03;6111642;19;20463;-74
2024/02/16 01:27:16;;;;;;;6.43;4.22;;;;;;;6.65;100.00;98279.88;6111958;19;20006;-74
2024/02/16 01:29:17;;;;;;;7.90;3.90;;;;;;;6.63;100.00;98276.69;6110229;19;20040;-74
2024/02/16 01:31:17;;;;;;;4.32;3.53;;;;;;;6.64;100.00;98261.78;6110949;19;20014;-75
2024/02/16 01:33:18;;;;;;;6.28;4.10;;;;;;;6.67;100.00;98269.31;6111974;19;20046;-74
2024/02/16 01:35:18;;;;;;;9.45;4.00;;;;;;;6.66;100.00;98273.22;6111088;19;20086;-74
2024/02/16 01:37:18;;;;;;;7.80;4.07;;;;;;;6.68;100.00;98275.59;6110469;19;20035;-74
2024/02/16 01:39:19;;;;;;;4.75;3.83;;;;;;;6.63;100.00;98268.44;6111225;19;20347;-74
2024/02/16 01:41:19;;;;;;;8.57;4.10;;;;;;;6.62;100.00;98275.09;6111032;19;19998;-74
2024/02/16 01:43:22;;;;;;;6.63;4.30;;;;;;;6.58;100.00;98263.19;6110748;19;20718;-75
2024/02/16 01:45:23;;;;;;;11.32;4.55;;;;;;;6.58;100.00;98265.16;6110212;19;20350;-74
2024/02/16 01:47:23;;;;;;;4.78;3.85;;;;;;;6.58;100.00;98262.41;6111970;19;20009;-74
2024/02/16 01:49:24;;;;;;;4.97;3.70;;;;;;;6.59;100.00;98256.53;6107116;19;20022;-75
2024/02/16 01:51:25;;;;;;;7.20;4.05;;;;;;;6.61;100.00;98258.94;6110552;19;20063;-75
2024/02/16 01:53:27;;;;;;;6.75;3.92;;;;;;;6.58;100.00;98245.91;6111537;19;20466;-74
2024/02/16 01:55:27;;;;;;;6.85;3.47;;;;;;;6.62;100.00;98255.03;6112055;19;20003;-74
2024/02/16 01:57:28;;;;;;;4.82;3.67;;;;;;;6.61;100.00;98254.22;6111383;19;20091;-74
2024/02/16 01:59:28;;;;;;;6.60;3.92;;;;;;;6.60;100.00;98255.38;6110432;19;20003;-75
2024/02/16 02:01:30;;;;;;;6.70;3.67;;;;;;;6.59;100.00;98259.28;6111579;19;20334;-74
2024/02/16 02:03:30;;;;;;;7.45;4.63;;;;;;;6.58;100.00;98254.16;6111019;19;20003;-75
2024/02/16 02:05:31;;;;;;;7.00;4.35;;;;;;;6.56;100.00;98264.72;6109810;19;20475;-74
2024/02/16 02:07:32;;;;;;;5.10;4.00;;;;;;;6.56;100.00;98253.72;6111887;19;20327;-74
2024/02/16 02:09:33;;;;;;;5.50;3.72;;;;;;;6.56;100.00;98256.47;6107977;19;20103;-75
2024/02/16 02:11:33;;;;;;;5.30;3.75;;;;;;;6.58;100.00;98270.66;6110499;19;20044;-75
2024/02/16 02:13:34;;;;;;;6.72;4.13;;;;;;;6.55;100.00;98257.63;6110060;19;20003;-74
2024/02/16 02:15:34;;;;;;;5.93;4.28;;;;;;;6.56;100.00;98250.97;6111463;19;20023;-74
2024/02/16 02:17:35;;;;;;;7.35;3.88;;;;;;;6.53;100.00;98257.97;6110554;19;20336;-74
2024/02/16 02:19:36;;;;;;;6.45;3.63;;;;;;;6.55;100.00;98243.88;6110743;19;20447;-74
2024/02/16 02:21:36;;;;;;;5.15;4.13;;;;;;;6.53;100.00;98235.97;6109950;19;20009;-75
2024/02/16 02:23:36;;;;;;;8.38;3.78;;;;;;;6.53;100.00;98238.72;6110045;19;20331;-75
2024/02/16 02:25:36;;;;;;;5.65;3.40;;;;;;;6.53;100.00;98232.44;6110030;19;20062;-75
2024/02/16 02:27:38;;;;;;;5.43;3.30;;;;;;;6.57;100.00;98230.56;6110974;19;20036;-75
2024/02/16 02:29:39;;;;;;;4.72;3.53;;;;;;;6.60;100.00;98227.91;6109176;19;20541;-74
2024/02/16 02:31:40;;;;;;;4.65;3.95;;;;;;;6.61;100.00;98221.25;6109838;19;19999;-75
2024/02/16 02:33:40;;;;;;;6.47;3.72;;;;;;;6.64;100.00;98220.53;6108875;19;19994;-74
2024/02/16 02:35:41;;;;;;;5.13;3.95;;;;;;;6.65;100.00;98216.63;6110212;19;20828;-75
2024/02/16 02:37:41;;;;;;;6.93;4.50;;;;;;;6.66;100.00;98220.19;6110775;19;20549;-75
2024/02/16 02:39:41;;;;;;;4.80;3.85;;;;;;;6.67;100.00;98213.53;6109021;19;20023;-74
2024/02/16 02:41:43;;;;;;;4.50;3.60;;;;;;;6.73;100.00;98210.13;6110749;19;20018;-75
2024/02/16 02:43:43;;;;;;;5.45;3.50;;;;;;;6.73;100.00;98207.38;6110051;19;20020;-74
2024/02/16 02:45:44;;;;;;;8.00;3.50;;;;;;;6.74;100.00;98208.97;6109882;19;20010;-74
2024/02/16 02:47:46;;;;;;;8.25;3.80;;;;;;;6.72;100.00;98211.31;6109728;19;20090;-74
2024/02/16 02:49:46;;;;;;;5.68;3.72;;;;;;;6.72;100.00;98207.75;6108968;19;20010;-75
2024/02/16 02:51:47;;;;;;;7.55;4.18;;;;;;;6.74;100.00;98206.22;6110002;19;20009;-75
2024/02/16 02:53:47;;;;;;;6.35;4.10;;;;;;;6.74;100.00;98206.22;6110002;19;20239;-75
2024/02/16 02:55:47;;;;;;;6.38;3.60;;;;;;;6.74;100.00;98214.47;6109853;19;20010;-75
2024/02/16 02:57:48;;;;;;;6.35;4.00;;;;;;;6.72;100.00;98200.31;6110603;19;20003;-74
2024/02/16 02:59:48;;;;;;;7.07;3.75;;;;;;;6.74;100.00;98206.22;6109157;19;20006;-74
2024/02/16 03:01:48;;;;;;;6.88;4.13;;;;;;;6.75;100.00;98207.81;6108092;19;20009;-74
2024/02/16 03:03:49;;;;;;;6.80;3.85;;;;;;;6.78;100.00;98198.03;6109275;19;20003;-74
2024/02/16 03:05:49;;;;;;;4.82;3.63;;;;;;;6.78;100.00;98202.75;6109847;19;20073;-74
2024/02/16 03:07:51;;;;;;;5.18;3.72;;;;;;;6.75;100.00;98201.53;6109735;19;20007;-75
2024/02/16 03:09:51;;;;;;;9.93;4.03;;;;;;;6.78;100.00;98202.75;6109685;19;20013;-74
2024/02/16 03:11:51;;;;;;;4.00;3.55;;;;;;;6.75;100.00;98210.56;6110246;19;20448;-74
2024/02/16 03:13:52;;;;;;;5.78;4.50;;;;;;;6.76;100.00;98220.41;6109378;19;20014;-75
2024/02/16 03:15:53;;;;;;;7.03;4.32;;;;;;;6.75;100.00;98215.28;6098776;19;20009;-75
2024/02/16 03:17:53;;;;;;;8.80;4.30;;;;;;;6.79;100.00;98209.88;6109550;19;20007;-74
2024/02/16 03:19:54;;;;;;;6.80;4.32;;;;;;;6.84;100.00;98224.13;6107456;19;20007;-74
2024/02/16 03:21:55;;;;;;;5.55;3.88;;;;;;;6.87;100.00;98220.66;6110248;19;20018;-74
2024/02/16 03:23:55;;;;;;;4.57;3.95;;;;;;;6.89;100.00;98232.09;6107637;19;20011;-74
2024/02/16 03:25:56;;;;;;;6.80;4.20;;;;;;;6.89;100.00;98220.31;6106653;19;20010;-74
2024/02/16 03:27:56;;;;;;;7.05;4.10;;;;;;;6.89;100.00;98231.31;6106458;19;20362;-75
2024/02/16 03:29:56;;;;;;;8.15;4.20;;;;;;;6.88;100.00;98235.22;6108060;19;20066;-74
2024/02/16 03:31:57;;;;;;;6.60;4.53;;;;;;;6.92;100.00;98247.88;6109261;19;20005;-74
2024/02/16 03:33:58;;;;;;;5.53;4.22;;;;;;;6.93;100.00;98238.47;6107735;19;20389;-74
2024/02/16 03:36:00;;;;;;;7.45;4.88;;;;;;;6.92;100.00;98236.88;6108151;19;19999;-75
2024/02/16 03:38:00;;;;;;;6.47;3.67;;;;;;;6.91;100.00;98246.28;6109094;19;20014;-75
2024/02/16 03:40:01;;;;;;;7.93;4.10;;;;;;;6.89;100.00;98254.09;6108361;19;20022;-74
2024/02/16 03:42:01;;;;;;;6.20;4.78;;;;;;;6.88;100.00;98249.75;6107722;19;20003;-74
2024/02/16 03:44:01;;;;;;;6.40;4.10;;;;;;;6.85;100.00;98236.72;6104723;19;20874;-74
2024/02/16 03:46:02;;;;;;;7.80;4.50;;;;;;;6.87;100.00;98239.91;6107305;19;20074;-75
2024/02/16 03:48:02;;;;;;;7.78;4.35;;;;;;;6.86;100.00;98232.78;6106511;19;20003;-75
2024/02/16 03:50:03;;;;;;;6.45;4.65;;;;;;;6.89;100.00;98225.81;6108249;19;20006;-74
2024/02/16 03:52:03;;;;;;;9.38;4.30;;;;;;;6.92;100.00;98208.56;6107707;19;20003;-75
2024/02/16 03:54:04;;;;;;;7.78;4.72;;;;;;;6.97;100.00;98208.28;6108418;19;19998;-74
2024/02/16 03:56:05;;;;;;;5.18;3.83;;;;;;;7.00;100.00;98213.84;6107055;19;20011;-74
2024/02/16 03:58:06;;;;;;;5.60;4.25;;;;;;;7.06;100.00;98224.59;6106886;19;20025;-74
2024/02/16 04:00:08;;;;;;;8.90;4.50;;;;;;;7.07;100.00;98229.72;6107102;19;20003;-74
2024/02/16 04:02:08;;;;;;;4.27;3.80;;;;;;;7.07;100.00;98221.47;6107559;19;20407;-75
2024/02/16 04:04:08;;;;;;;5.88;4.60;;;;;;;7.11;100.00;98218.78;6105105;19;20258;-74
2024/02/16 04:06:09;;;;;;;6.15;4.07;;;;;;;7.12;100.00;98220.41;6106909;19;20022;-75
2024/02/16 04:08:09;;;;;;;6.65;3.95;;;;;;;7.11;100.00;98222.31;6106410;19;20011;-74
2024/02/16 04:10:10;;;;;;;6.70;4.10;;;;;;;7.10;100.00;98223.50;6107263;19;20012;-74
2024/02/16 04:12:10;;;;;;;5.90;3.60;;;;;;;7.11;100.00;98222.31;6108803;19;20030;-74
2024/02/16 04:14:11;;;;;;;4.57;3.83;;;;;;;7.13;100.00;98222.78;6106714;19;20011;-74
2024/02/16 04:16:11;;;;;;;5.70;3.75;;;;;;;7.14;100.00;98221.63;6098467;19;20007;-75
2024/02/16 04:18:12;;;;;;;4.78;3.63;;;;;;;7.14;100.00;98229.88;6098307;19;20011;-74
2024/02/16 04:20:14;;;;;;;10.30;4.40;;;;;;;7.13;100.00;98222.78;6099191;19;20010;-74
2024/02/16 04:22:15;;;;;;;7.53;3.80;;;;;;;7.14;100.00;98220.84;6099607;19;20219;-75
2024/02/16 04:24:15;;;;;;;5.63;3.85;;;;;;;7.14;100.00;98218.88;6098911;19;19995;-75
2024/02/16 04:26:15;;;;;;;5.20;3.90;;;;;;;7.13;100.00;98211.78;6099706;19;19995;-75
2024/02/16 04:28:18;;;;;;;5.72;4.38;;;;;;;7.16;100.00;98207.50;6098754;19;20066;-75
2024/02/16 04:30:18;;;;;;;5.50;3.42;;;;;;;7.18;100.00;98216.97;6098687;19;20066;-75
2024/02/16 04:32:18;;;;;;;6.40;3.58;;;;;;;7.18;100.00;98210.69;6099927;19;20020;-75
2024/02/16 04:34:19;;;;;;;4.65;3.85;;;;;;;7.23;100.00;98210.41;6099279;19;19998;-75
2024/02/16 04:36:19;;;;;;;4.65;3.60;;;;;;;7.21;100.00;98209.97;6098472;19;20221;-75
2024/02/16 04:38:20;;;;;;;7.28;4.03;;;;;;;7.22;100.00;98201.34;6097567;19;19998;-75
2024/02/16 04:40:20;;;;;;;4.75;3.65;;;;;;;7.22;100.00;98212.34;6099512;19;19990;-74
2024/02/16 04:42:20;;;;;;;7.53;4.47;;;;;;;7.18;100.00;98205.97;6098261;19;20039;-74
2024/02/16 04:44:21;;;;;;;5.88;4.15;;;;;;;7.17;100.00;98206.34;6098623;19;20030;-75
2024/02/16 04:46:21;;;;;;;7.93;4.63;;;;;;;7.12;100.00;98206.66;6099032;19;20026;-75
2024/02/16 04:48:22;;;;;;;6.15;4.22;;;;;;;7.13;100.00;98209.03;6098258;19;20228;-75
2024/02/16 04:50:22;;;;;;;9.75;4.82;;;;;;;7.08;100.00;98214.00;6098424;19;20495;-75
2024/02/16 04:52:22;;;;;;;6.90;4.18;;;;;;;7.04;100.00;98205.69;6099330;19;20028;-75
2024/02/16 04:54:24;;;;;;;5.30;4.13;;;;;;;7.01;100.00;98212.69;6098025;19;20023;-74
2024/02/16 04:56:24;;;;;;;4.80;3.97;;;;;;;7.02;100.00;98210.75;6104319;19;20699;-75
2024/02/16 04:58:24;;;;;;;5.40;4.30;;;;;;;6.97;100.00;98205.53;6103814;19;20262;-75
2024/02/16 05:00:25;;;;;;;6.35;4.03;;;;;;;6.95;100.00;98207.84;6103623;19;20022;-74
2024/02/16 05:02:25;;;;;;;6.40;3.90;;;;;;;6.96;100.00;98204.75;6104084;19;20020;-74
2024/02/16 05:04:25;;;;;;;5.50;4.35;;;;;;;6.96;100.00;98196.50;6104438;19;20041;-75
2024/02/16 05:06:26;;;;;;;5.85;4.70;;;;;;;6.96;100.00;98199.25;6104180;19;20014;-75
2024/02/16 05:08:26;;;;;;;6.85;4.57;;;;;;;6.96;100.00;98193.75;6103428;19;20412;-75
2024/02/16 05:10:26;;;;;;;7.38;4.38;;;;;;;6.98;100.00;98198.88;6101514;19;20128;-74
2024/02/16 05:12:27;;;;;;;4.40;3.97;;;;;;;6.95;100.00;98200.41;6104988;19;20027;-74
2024/02/16 05:14:27;;;;;;;9.63;4.15;;;;;;;6.91;100.00;98204.22;6101066;19;20006;-75
2024/02/16 05:16:28;;;;;;;7.32;4.32;;;;;;;6.89;100.00;98204.59;6111959;19;20421;-74
2024/02/16 05:18:28;;;;;;;6.07;4.18;;;;;;;6.85;100.00;98202.91;6109440;19;19998;-74
2024/02/16 05:20:29;;;;;;;5.32;4.03;;;;;;;6.82;100.00;98211.88;6111734;19;20086;-75
2024/02/16 05:22:29;;;;;;;7.03;4.20;;;;;;;6.79;100.00;98198.88;6110745;19;20347;-74
2024/02/16 05:24:29;;;;;;;5.50;3.78;;;;;;;6.73;100.00;98201.88;6111185;19;20015;-75
2024/02/16 05:26:30;;;;;;;5.95;4.03;;;;;;;6.70;100.00;98199.03;6110921;19;20019;-74
2024/02/16 05:28:30;;;;;;;6.80;4.25;;;;;;;6.65;100.00;98202.88;6110107;19;20010;-74
2024/02/16 05:30:31;;;;;;;8.02;3.95;;;;;;;6.59;100.00;98198.03;6109745;19;20010;-75
2024/02/16 05:32:31;;;;;;;9.13;3.55;;;;;;;6.57;100.00;98195.63;6111453;19;20015;-74
2024/02/16 05:34:37;;;;;;;7.57;4.50;;;;;;;6.57;100.00;98209.38;6109769;19;20015;-75
2024/02/16 05:36:37;;;;;;;7.85;5.13;;;;;;;6.55;100.00;98206.19;6111186;19;20035;-75
2024/02/16 05:38:43;;;;;;;6.32;4.60;;;;;;;6.55;100.00;98208.94;6109116;19;20006;-74
2024/02/16 05:40:53;;;;;;;6.95;4.25;;;;;;;6.62;100.00;98203.63;6109411;19;20500;-75
2024/02/16 05:42:54;;;;;;;5.85;4.43;;;;;;;6.64;100.00;98201.28;6109037;19;20040;-74
2024/02/16 05:44:54;;;;;;;5.78;4.07;;;;;;;6.63;100.00;98210.69;6109637;19;20027;-75
2024/02/16 05:46:55;;;;;;;5.50;4.45;;;;;;;6.64;100.00;98203.25;6111071;19;20450;-74
2024/02/16 05:48:55;;;;;;;6.88;4.88;;;;;;;6.62;100.00;98209.13;6109154;19;20015;-74
2024/02/16 05:51:02;;;;;;;8.20;5.15;;;;;;;6.60;100.00;98205.09;6108945;19;20066;-75
2024/02/16 05:53:02;;;;;;;12.43;8.13;;;;;;;6.58;100.00;98201.94;6110105;19;20024;-75
2024/02/16 05:55:04;;;;;;;10.00;6.68;;;;;;;6.65;100.00;98202.88;6110565;19;20002;-75
2024/02/16 05:57:04;;;;;;;6.78;4.68;;;;;;;6.71;100.00;98203.41;6110741;19;20003;-75
2024/02/16 05:59:05;;;;;;;8.18;6.20;;;;;;;6.66;100.00;98192.69;6108907;19;20038;-75
2024/02/16 06:01:05;;;;;;;8.75;6.68;;;;;;;6.66;100.00;98201.72;6109835;19;20002;-75
2024/02/16 06:03:07;;;;;;;13.40;7.05;;;;;;;6.61;100.00;98204.75;6109880;19;20320;-74
2024/02/16 06:05:07;;;;;;;9.73;6.32;;;;;;;6.59;100.00;98200.78;6109811;19;20036;-74
2024/02/16 06:07:08;;;;;;;7.32;5.82;;;;;;;6.57;100.00;98203.88;6110293;19;20382;-74
2024/02/16 06:09:08;;;;;;;7.03;4.97;;;;;;;6.60;100.00;98208.66;6110496;19;20006;-74
2024/02/16 06:11:09;;;;;;;10.02;5.32;;;;;;;6.58;100.00;98202.72;6110196;19;20023;-75
2024/02/16 06:13:09;;;;;;;6.75;5.10;;;;;;;6.58;100.00;98199.97;6109715;19;20026;-74
2024/02/16 06:15:10;;;;;;;8.30;5.28;;;;;;;6.55;100.00;98199.91;6110367;19;20070;-74
2024/02/16 06:17:10;;;;;;;8.07;5.03;;;;;;;6.55;100.00;98203.44;6111227;19;20538;-74
2024/02/16 06:19:10;;;;;;;7.47;4.70;;;;;;;6.53;100.00;98197.50;6109452;19;20007;-75
2024/02/16 06:21:11;;;;;;;6.82;4.78;;;;;;;6.48;100.00;98192.28;6110198;19;20031;-74
2024/02/16 06:23:11;;;;;;;7.60;4.75;;;;;;;6.46;100.00;98195.41;6109679;19;20436;-74
2024/02/16 06:25:11;;;;;;;7.38;5.55;;;;;;;6.46;100.00;98198.16;6110636;19;20011;-74
2024/02/16 06:27:12;;;;;;;8.35;5.18;;;;;;;6.44;100.00;98205.94;6109678;19;20007;-74
2024/02/16 06:29:13;;;;;;;23.73;5.50;;;;;;;6.44;100.00;98202.38;6110280;19;20037;-75
2024/02/16 06:31:14;;;;;;;8.93;6.35;;;;;;;6.43;100.00;98209.84;6108478;19;20538;-74
2024/02/16 06:33:15;;;;;;;12.38;5.53;;;;;;;6.43;100.00;98212.59;6110352;19;20010;-74
2024/02/16 06:35:15;;;;;;;6.38;4.78;;;;;;;6.46;100.00;98211.09;6110267;19;19999;-74
2024/02/16 06:37:15;;;;;;;8.90;5.60;;;;;;;6.46;100.00;98209.16;6109257;19;20514;-74
2024/02/16 06:39:18;;;;;;;7.10;4.80;;;;;;;6.48;100.00;98217.03;6108623;19;20007;-74
2024/02/16 06:41:18;;;;;;;6.28;4.75;;;;;;;6.48;100.00;98217.03;6108955;19;20447;-74
2024/02/16 06:43:19;;;;;;;8.18;5.25;;;;;;;6.48;100.00;98220.56;6109146;19;20003;-75
2024/02/16 06:45:20;;;;;;;9.07;5.40;;;;;;;6.50;100.00;98217.47;6110543;19;20023;-75
2024/02/16 06:47:20;;;;;;;6.40;4.80;;;;;;;6.51;100.00;98207.25;6108963;19;20002;-75
2024/02/16 06:49:20;;;;;;;12.00;5.90;;;;;;;6.50;100.00;98211.16;6108686;19;20009;-75
2024/02/16 06:51:21;;;;;;;6.93;5.30;;;;;;;6.51;100.00;98219.03;6109387;19;20006;-74
2024/02/16 06:53:21;;;;;;;9.85;4.90;;;;;;;6.52;100.00;98217.09;6110161;19;20026;-75
2024/02/16 06:55:22;;;;;;;15.90;5.57;;;;;;;6.51;100.00;98213.56;6108814;19;20432;-75
2024/02/16 06:57:22;;;;;;;9.38;4.72;;;;;;;6.54;100.00;98215.59;6109455;19;20020;-74
2024/02/16 06:59:23;;;;;;;7.38;4.63;;;;;;;6.57;100.00;98225.06;6108032;19;20103;-74
2024/02/16 07:01:23;;;;;;;8.75;5.03;;;;;;;6.62;100.00;98217.34;6109144;19;20013;-74
2024/02/16 07:03:23;;;;;;;8.57;4.90;;;;;;;6.68;100.00;98226.09;6109782;19;20009;-74
2024/02/16 07:05:24;;;;;;;8.90;4.68;;;;;;;6.71;100.00;98228.16;6108779;19;20089;-74
2024/02/16 07:07:24;;;;;;;7.60;4.50;;;;;;;6.76;100.00;98231.41;6108929;19;20010;-74
2024/02/16 07:09:24;;;;;;;8.48;4.93;;;;;;;6.78;100.00;98233.00;6109602;19;20013;-75
2024/02/16 07:11:25;;;;;;;7.47;4.50;;;;;;;6.81;100.00;98232.31;6108527;19;20010;-74
2024/02/16 07:13:25;;;;;;;7.38;5.13;;;;;;;6.89;100.00;98236.81;6110169;19;20455;-75
2024/02/16 07:15:26;;;;;;;6.97;4.70;;;;;;;6.92;100.00;98236.06;6109292;19;20332;-74
2024/02/16 07:17:27;;;;;;;6.45;4.35;;;;;;;6.95;100.00;98238.09;6110447;19;20079;-75
2024/02/16 07:19:28;;;;;;;7.00;4.65;;;;;;;6.99;100.00;98241.72;6105137;19;20471;-74
2024/02/16 07:21:29;;;;;;;5.88;4.63;;;;;;;7.01;100.00;98240.22;6108990;19;20010;-75
2024/02/16 07:23:29;;;;;;;8.63;4.50;;;;;;;7.06;100.00;98230.09;6110093;19;20363;-74
2024/02/16 07:25:30;;;;;;;7.63;5.68;;;;;;;7.12;100.00;98232.19;6108930;19;20066;-74
2024/02/16 07:27:30;;;;;;;8.90;6.50;;;;;;;7.14;100.00;98240.88;6109476;19;19999;-74
2024/02/16 07:29:31;;;;;;;14.70;7.72;;;;;;;7.19;100.00;98240.56;6108240;19;20091;-74
2024/02/16 07:31:35;;;;;;;13.13;9.48;;;;;;;7.25;100.00;98241.88;6109010;19;20014;-74
2024/02/16 07:33:35;;;;;;;17.50;9.82;;;;;;;7.29;100.00;98236.47;6109293;19;20002;-74
2024/02/16 07:35:36;;;;;;;12.32;8.57;;;;;;;7.34;100.00;98236.16;6108775;19;19999;-75
2024/02/16 07:37:36;;;;;;;14.48;9.52;;;;;;;7.35;100.00;98228.72;6109273;19;20005;-74
2024/02/16 07:39:37;;;;;;;20.90;12.13;;;;;;;7.41;100.00;98230.81;6107921;19;20002;-74
2024/02/16 07:41:38;;;;;;;29.83;15.77;;;;;;;7.47;100.00;98236.84;6108511;19;20340;-75
2024/02/16 07:43:39;;;;;;;30.77;14.98;;;;;;;7.47;100.00;98225.81;6108705;19;19999;-74
2024/02/16 07:45:39;;;;;;;50.22;24.35;;;;;;;7.48;100.00;98228.19;6108900;19;20005;-74
2024/02/16 07:47:43;;;;;;;44.85;19.63;;;;;;;7.48;100.00;98216.41;6108617;19;20065;-75
2024/02/16 07:49:44;;;;;;;40.35;19.67;;;;;;;7.48;100.00;98221.91;6106814;19;20053;-74
2024/02/16 07:51:44;;;;;;;49.83;24.17;;;;;;;7.51;100.00;98226.66;6108897;19;20035;-74
2024/02/16 07:53:46;;;;;;;51.08;23.67;;;;;;;7.53;100.00;98230.69;6109440;19;20043;-75
2024/02/16 07:55:46;;;;;;;25.93;14.20;;;;;;;7.59;100.00;98218.19;6107753;19;20026;-74
2024/02/16 07:57:47;;;;;;;26.60;13.80;;;;;;;7.60;100.00;98225.28;6108297;19;20002;-75
2024/02/16 07:59:47;;;;;;;26.27;14.57;;;;;;;7.62;100.00;98210.38;6107871;19;20058;-75
2024/02/16 08:01:47;;;;;;;19.38;10.63;;;;;;;7.66;100.00;98212.03;6108836;19;20435;-75
2024/02/16 08:03:48;;;;;;;25.50;13.38;;;;;;;7.66;100.00;98206.50;6108943;19;20439;-74
2024/02/16 08:05:48;;;;;;;18.48;9.00;;;;;;;7.70;100.00;98199.13;6108638;19;20005;-74
2024/02/16 08:07:48;;;;;;;16.50;9.30;;;;;;;7.72;100.00;98199.56;6107674;19;20375;-74
2024/02/16 08:09:49;;;;;;;20.83;8.35;;;;;;;7.79;100.00;98202.44;6106967;19;20710;-75
2024/02/16 08:11:49;;;;;;;10.18;4.97;;;;;;;7.86;100.00;98201.75;6107987;19;19999;-75
2024/02/16 08:13:49;;;;;;;8.70;4.60;;;;;;;7.93;100.00;98201.88;6108373;19;20051;-75
2024/02/16 08:15:51;;;;;;;8.23;4.55;;;;;;;7.97;100.00;98201.94;6098067;19;20006;-75
2024/02/16 08:17:52;;;;;;;8.90;4.45;;;;;;;7.97;100.00;98193.69;6107239;19;20237;-74
2024/02/16 08:19:54;;;;;;;5.50;4.05;;;;;;;8.04;100.00;98191.06;6106117;19;20987;-74
2024/02/16 08:21:54;;;;;;;6.82;3.92;;;;;;;8.09;100.00;98197.03;6109288;19;20007;-74
2024/02/16 08:23:54;;;;;;;8.75;3.78;;;;;;;8.19;100.00;98195.63;6106003;19;20468;-74
2024/02/16 08:25:55;;;;;;;6.88;4.35;;;;;;;8.25;100.00;98185.88;6107886;19;20014;-75
2024/02/16 08:27:55;;;;;;;6.18;4.10;;;;;;;8.31;100.00;98195.44;6108330;19;20024;-75
2024/02/16 08:29:55;;;;;;;6.95;3.63;;;;;;;8.33;100.00;98192.31;6105187;19;20014;-75
2024/02/16 08:31:56;;;;;;;6.32;3.78;;;;;;;8.35;100.00;98192.75;6111844;19;20348;-75
2024/02/16 08:33:56;;;;;;;6.95;3.80;;;;;;;8.35;100.00;98178.97;6112023;19;20007;-74
2024/02/16 08:35:56;;;;;;;7.18;5.25;;;;;;;8.35;100.00;98177.00;6111726;19;20595;-74
2024/02/16 08:37:57;;;;;;;6.28;4.30;;;;;;;8.44;100.00;98171.25;6112965;19;20011;-74
2024/02/16 08:39:57;;;;;;;6.00;3.92;;;;;;;8.54;100.00;98176.13;6111494;19;20010;-75
2024/02/16 08:42:01;;;;;;;5.22;3.88;;;;;;;8.61;100.00;98189.22;6112952;19;20336;-74
2024/02/16 08:44:02;;;;;;;5.53;3.75;;;;;;;8.76;100.00;98187.44;6111862;19;20002;-75
2024/02/16 08:46:02;;;;;;;6.38;4.50;;;;;;;8.84;100.00;98173.38;6112194;19;20020;-75
2024/02/16 08:48:03;;;;;;;7.10;4.55;;;;;;;8.90;100.00;98177.41;6111163;19;20037;-75
2024/02/16 08:50:04;;;;;;;6.90;5.00;;;;;;;8.98;100.00;98195.66;6112422;19;20346;-75
2024/02/16 08:52:06;;;;;;;6.95;5.28;;;;;;;9.04;100.00;98181.53;6110042;19;20002;-74
2024/02/16 08:54:07;;;;;;;10.45;6.28;;;;;;;9.05;100.00;98186.66;6111731;19;20019;-74
2024/02/16 08:56:11;;;;;;;14.02;9.10;;;;;;;9.09;100.00;98190.25;6112613;19;19995;-75
2024/02/16 08:58:12;;;;;;;14.43;6.65;;;;;;;9.13;100.00;98180.06;6111449;19;20002;-75
2024/02/16 09:00:13;;;;;;;6.63;5.13;;;;;;;9.18;100.00;98181.69;6111778;19;20010;-75
2024/02/16 09:02:13;;;;;;;8.57;4.68;;;;;;;9.20;100.00;98191.19;6111712;19;20043;-74
2024/02/16 09:04:15;;;;;;;9.35;5.25;;;;;;;9.23;100.00;98192.41;6112440;19;20006;-75
2024/02/16 09:06:15;;;;;;;7.60;4.43;;;;;;;9.28;100.00;98194.84;6112194;19;20042;-75
2024/02/16 09:08:16;;;;;;;9.27;5.40;;;;;;;9.31;100.00;98196.06;6109653;19;20077;-75
2024/02/16 09:10:17;;;;;;;7.65;4.50;;;;;;;9.37;100.00;98198.09;6110134;19;20064;-75
2024/02/16 09:12:17;;;;;;;5.13;4.35;;;;;;;9.43;100.00;98199.38;6112396;19;20007;-74
2024/02/16 09:14:18;;;;;;;6.88;4.80;;;;;;;9.48;100.00;98204.53;6111068;19;19999;-74
2024/02/16 09:16:18;;;;;;;4.28;3.58;;;;;;;9.53;100.00;98208.94;6103762;19;20019;-74
2024/02/16 09:18:19;;;;;;;6.90;4.18;;;;;;;9.68;100.00;98207.94;6104198;19;20066;-75
2024/02/16 09:20:22;;;;;;;8.32;4.45;;;;;;;9.82;100.00;98215.56;6104813;19;20010;-74
2024/02/16 09:22:22;;;;;;;4.60;3.63;;;;;;;9.90;100.00;98208.91;6103866;19;20002;-75
2024/02/16 09:24:24;;;;;;;5.00;3.30;;;;;;;9.93;100.00;98215.66;6103931;19;20022;-74
2024/02/16 09:26:29;;;;;;;5.03;3.72;;;;;;;9.97;100.00;98216.50;6105002;19;20006;-74